createdAt,value
2018-03-06T00:00:35.468Z,71.31
2018-03-06T00:01:16.023Z,71.5
2018-03-06T00:01:56.583Z,71.69
2018-03-06T00:02:37.167Z,71.5
2018-03-06T00:03:17.717Z,71.59
2018-03-06T00:03:58.276Z,71.59
2018-03-06T00:04:38.869Z,71.4
2018-03-06T00:05:19.421Z,71.31
2018-03-06T00:05:59.976Z,71.5
2018-03-06T00:06:40.540Z,71.59
2018-03-06T00:07:21.104Z,71.69
2018-03-06T00:08:01.672Z,71.69
2018-03-06T00:08:42.386Z,71.69
2018-03-06T00:09:23.005Z,71.31
2018-03-06T00:10:03.564Z,71.59
2018-03-06T00:10:44.157Z,71.59
2018-03-06T00:11:24.743Z,71.5
2018-03-06T00:12:05.317Z,71.4
2018-03-06T00:12:45.850Z,71.59
2018-03-06T00:13:26.418Z,71.69
2018-03-06T00:14:07.115Z,71.5
2018-03-06T00:14:47.702Z,71.5
2018-03-06T00:15:28.263Z,71.5
2018-03-06T00:16:08.805Z,71.5
2018-03-06T00:16:49.417Z,71.5
2018-03-06T00:17:29.939Z,71.69
2018-03-06T00:18:10.490Z,71.4
2018-03-06T00:18:51.122Z,71.78
2018-03-06T00:19:31.597Z,71.88
2018-03-06T00:20:12.142Z,71.69
2018-03-06T00:20:52.694Z,71.78
2018-03-06T00:21:33.257Z,71.78
2018-03-06T00:22:13.810Z,71.69
2018-03-06T00:22:54.378Z,71.69
2018-03-06T00:23:34.941Z,72.25
2018-03-06T00:24:15.501Z,71.97
2018-03-06T00:24:56.058Z,72.06
2018-03-06T00:25:36.611Z,71.97
2018-03-06T00:26:17.142Z,71.88
2018-03-06T00:26:57.701Z,71.69
2018-03-06T00:27:38.278Z,71.97
2018-03-06T00:28:18.836Z,72.16
2018-03-06T00:28:59.384Z,72.06
2018-03-06T00:29:39.950Z,71.97
2018-03-06T00:30:20.504Z,72.34
2018-03-06T00:31:01.077Z,71.97
2018-03-06T00:31:41.633Z,72.06
2018-03-06T00:32:22.237Z,71.78
2018-03-06T00:33:02.785Z,72.34
2018-03-06T00:33:43.300Z,72.16
2018-03-06T00:34:23.857Z,72.16
2018-03-06T00:35:04.411Z,71.97
2018-03-06T00:35:44.961Z,72.34
2018-03-06T00:36:25.511Z,72.16
2018-03-06T00:37:06.061Z,72.25
2018-03-06T00:37:46.621Z,72.25
2018-03-06T00:38:27.218Z,72.25
2018-03-06T00:39:07.745Z,72.16
2018-03-06T00:39:48.304Z,71.97
2018-03-06T00:40:28.855Z,72.16
2018-03-06T00:41:09.409Z,72.06
2018-03-06T00:41:49.964Z,72.06
2018-03-06T00:42:30.524Z,71.69
2018-03-06T00:43:11.081Z,71.97
2018-03-06T00:43:51.633Z,72.44
2018-03-06T00:44:32.216Z,72.06
2018-03-06T00:45:12.772Z,72.25
2018-03-06T00:45:53.327Z,72.16
2018-03-06T00:46:33.886Z,72.06
2018-03-06T00:47:14.471Z,72.25
2018-03-06T00:47:55.047Z,71.78
2018-03-06T00:48:35.610Z,71.88
2018-03-06T00:49:16.220Z,71.97
2018-03-06T00:49:56.733Z,71.78
2018-03-06T00:50:37.277Z,72.63
2018-03-06T00:51:17.853Z,72.34
2018-03-06T00:51:58.407Z,72.16
2018-03-06T00:52:38.979Z,72.44
2018-03-06T00:53:19.545Z,72.53
2018-03-06T00:54:00.112Z,72.16
2018-03-06T00:54:40.654Z,72.53
2018-03-06T00:55:21.218Z,72.6
2018-03-06T00:56:01.769Z,72.34
2018-03-06T00:56:42.319Z,72.41
2018-03-06T00:57:22.870Z,72.5
2018-03-06T00:58:03.454Z,72.6
2018-03-06T00:58:43.984Z,72.92
2018-03-06T00:59:24.521Z,72.6
2018-03-06T01:00:05.089Z,72.6
2018-03-06T01:00:45.626Z,72.88
2018-03-06T01:01:26.168Z,73.2
2018-03-06T01:02:06.727Z,72.97
2018-03-06T01:02:47.285Z,72.97
2018-03-06T01:03:27.829Z,73.07
2018-03-06T01:04:08.379Z,72.88
2018-03-06T01:04:48.928Z,73.07
2018-03-06T01:05:29.489Z,73.16
2018-03-06T01:06:10.042Z,73.54
2018-03-06T01:06:50.599Z,73.45
2018-03-06T01:07:31.129Z,73.16
2018-03-06T01:08:11.703Z,73.35
2018-03-06T01:08:52.278Z,73.16
2018-03-06T01:09:32.837Z,73.26
2018-03-06T01:10:13.391Z,73.26
2018-03-06T01:10:53.950Z,73.26
2018-03-06T01:11:34.492Z,73.26
2018-03-06T01:12:15.049Z,73.35
2018-03-06T01:12:55.612Z,73.35
2018-03-06T01:13:36.177Z,73.35
2018-03-06T01:14:16.742Z,73.45
2018-03-06T01:14:57.287Z,73.35
2018-03-06T01:15:37.826Z,73.54
2018-03-06T01:16:18.389Z,73.07
2018-03-06T01:16:58.932Z,73.64
2018-03-06T01:17:39.482Z,73.45
2018-03-06T01:18:20.040Z,73.54
2018-03-06T01:19:00.604Z,73.45
2018-03-06T01:19:41.150Z,73.35
2018-03-06T01:20:21.759Z,73.54
2018-03-06T01:21:02.260Z,73.64
2018-03-06T01:21:42.818Z,73.54
2018-03-06T01:22:23.365Z,73.45
2018-03-06T01:23:03.909Z,73.35
2018-03-06T01:23:44.462Z,73.54
2018-03-06T01:24:25.037Z,73.73
2018-03-06T01:25:05.606Z,73.35
2018-03-06T01:25:46.162Z,73.45
2018-03-06T01:26:26.720Z,73.07
2018-03-06T01:27:07.286Z,73.16
2018-03-06T01:27:47.843Z,73.16
2018-03-06T01:28:28.423Z,73.07
2018-03-06T01:29:08.994Z,73.45
2018-03-06T01:29:49.564Z,73.73
2018-03-06T01:30:30.115Z,73.92
2018-03-06T01:31:10.666Z,73.83
2018-03-06T01:31:51.222Z,73.64
2018-03-06T01:32:31.779Z,73.92
2018-03-06T01:33:12.366Z,73.92
2018-03-06T01:33:52.917Z,73.83
2018-03-06T01:34:33.477Z,73.64
2018-03-06T01:35:14.035Z,73.92
2018-03-06T01:35:54.595Z,73.83
2018-03-06T01:36:35.170Z,73.45
2018-03-06T01:37:15.774Z,73.45
2018-03-06T01:37:56.340Z,73.54
2018-03-06T01:38:36.885Z,73.35
2018-03-06T01:39:17.440Z,73.45
2018-03-06T01:39:57.988Z,74.02
2018-03-06T01:40:38.588Z,73.83
2018-03-06T01:41:19.161Z,73.73
2018-03-06T01:41:59.707Z,73.92
2018-03-06T01:42:40.258Z,73.83
2018-03-06T01:43:20.811Z,73.54
2018-03-06T01:44:01.379Z,73.35
2018-03-06T01:44:41.934Z,73.54
2018-03-06T01:45:22.558Z,73.54
2018-03-06T01:46:03.114Z,73.35
2018-03-06T01:46:43.675Z,74.02
2018-03-06T01:47:24.235Z,73.73
2018-03-06T01:48:04.807Z,74.11
2018-03-06T01:48:45.339Z,74.21
2018-03-06T01:49:25.912Z,74.11
2018-03-06T01:50:06.463Z,74.21
2018-03-06T01:50:47.027Z,74.11
2018-03-06T01:51:27.593Z,74.02
2018-03-06T01:52:08.152Z,74.02
2018-03-06T01:52:48.713Z,73.35
2018-03-06T01:53:29.272Z,73.35
2018-03-06T01:54:09.846Z,73.92
2018-03-06T01:54:50.411Z,73.45
2018-03-06T01:55:30.963Z,73.92
2018-03-06T01:56:11.541Z,73.54
2018-03-06T01:56:52.105Z,73.45
2018-03-06T01:57:32.660Z,73.54
2018-03-06T01:58:13.283Z,73.45
2018-03-06T01:58:53.870Z,73.54
2018-03-06T01:59:34.459Z,73.35
2018-03-06T02:00:15.012Z,73.26
2018-03-06T02:00:55.595Z,73.73
2018-03-06T02:01:36.152Z,73.54
2018-03-06T02:02:16.692Z,73.45
2018-03-06T02:02:57.254Z,73.83
2018-03-06T02:03:37.817Z,74.02
2018-03-06T02:04:18.391Z,73.92
2018-03-06T02:04:58.935Z,74.11
2018-03-06T02:05:39.563Z,73.83
2018-03-06T02:06:20.127Z,73.83
2018-03-06T02:07:00.682Z,73.83
2018-03-06T02:07:41.266Z,74.02
2018-03-06T02:08:21.842Z,73.35
2018-03-06T02:09:02.419Z,73.83
2018-03-06T02:09:42.984Z,74.11
2018-03-06T02:10:23.542Z,74.11
2018-03-06T02:11:04.108Z,74.11
2018-03-06T02:11:44.669Z,73.83
2018-03-06T02:12:25.217Z,74.02
2018-03-06T02:13:05.776Z,73.92
2018-03-06T02:13:46.354Z,74.21
2018-03-06T02:14:26.910Z,74.4
2018-03-06T02:15:07.483Z,74.11
2018-03-06T02:15:48.040Z,74.3
2018-03-06T02:16:28.610Z,74.11
2018-03-06T02:17:09.148Z,74.11
2018-03-06T02:17:49.699Z,74.4
2018-03-06T02:18:30.250Z,74.21
2018-03-06T02:19:10.803Z,74.3
2018-03-06T02:19:51.356Z,74.49
2018-03-06T02:20:31.905Z,74.21
2018-03-06T02:21:12.461Z,74.49
2018-03-06T02:21:53.012Z,74.68
2018-03-06T02:22:33.592Z,74.21
2018-03-06T02:23:14.145Z,74.49
2018-03-06T02:23:54.708Z,74.87
2018-03-06T02:24:35.268Z,74.87
2018-03-06T02:25:15.834Z,74.68
2018-03-06T02:25:56.389Z,74.4
2018-03-06T02:26:37.098Z,74.4
2018-03-06T02:27:17.666Z,74.4
2018-03-06T02:27:58.291Z,74.4
2018-03-06T02:28:38.841Z,74.3
2018-03-06T02:29:19.399Z,74.3
2018-03-06T02:29:59.967Z,74.4
2018-03-06T02:30:40.524Z,74.3
2018-03-06T02:31:21.080Z,74.4
2018-03-06T02:32:01.627Z,74.58
2018-03-06T02:32:42.200Z,74.68
2018-03-06T02:33:22.770Z,74.49
2018-03-06T02:34:03.331Z,74.4
2018-03-06T02:34:43.915Z,74.64
2018-03-06T02:35:24.468Z,74.77
2018-03-06T02:36:05.029Z,74.87
2018-03-06T02:36:45.590Z,74.77
2018-03-06T02:37:26.146Z,74.68
2018-03-06T02:38:06.704Z,74.68
2018-03-06T02:38:47.265Z,74.87
2018-03-06T02:39:27.827Z,74.49
2018-03-06T02:40:08.371Z,74.3
2018-03-06T02:40:48.932Z,74.4
2018-03-06T02:41:29.474Z,74.49
2018-03-06T02:42:10.031Z,74.3
2018-03-06T02:42:50.579Z,74.4
2018-03-06T02:43:31.116Z,74.4
2018-03-06T02:44:11.668Z,74.21
2018-03-06T02:44:52.224Z,74.21
2018-03-06T02:45:32.761Z,74.21
2018-03-06T02:46:13.333Z,74.17
2018-03-06T02:46:53.856Z,74.02
2018-03-06T02:47:34.412Z,74.4
2018-03-06T02:48:14.981Z,74.49
2018-03-06T02:48:55.526Z,74.21
2018-03-06T02:49:36.079Z,74.4
2018-03-06T02:50:16.637Z,74.4
2018-03-06T02:50:57.196Z,74.4
2018-03-06T02:51:37.744Z,74.4
2018-03-06T02:52:18.312Z,74.4
2018-03-06T02:52:58.845Z,74.49
2018-03-06T02:53:39.384Z,74.49
2018-03-06T02:54:19.944Z,74.49
2018-03-06T02:55:00.524Z,74.4
2018-03-06T02:55:41.104Z,74.3
2018-03-06T02:56:21.654Z,74.49
2018-03-06T02:57:02.200Z,73.83
2018-03-06T02:57:42.758Z,74.02
2018-03-06T02:58:23.317Z,73.83
2018-03-06T02:59:03.871Z,73.83
2018-03-06T02:59:44.432Z,73.83
2018-03-06T03:00:24.970Z,74.02
2018-03-06T03:01:05.541Z,74.11
2018-03-06T03:01:46.129Z,74.02
2018-03-06T03:02:26.651Z,73.83
2018-03-06T03:03:07.198Z,73.79
2018-03-06T03:03:47.754Z,73.98
2018-03-06T03:04:28.303Z,74.02
2018-03-06T03:05:08.855Z,73.83
2018-03-06T03:05:49.458Z,73.83
2018-03-06T03:06:29.995Z,74.02
2018-03-06T03:07:10.555Z,73.92
2018-03-06T03:07:51.108Z,73.83
2018-03-06T03:08:31.674Z,73.83
2018-03-06T03:09:12.224Z,74.02
2018-03-06T03:09:52.778Z,74.11
2018-03-06T03:10:33.338Z,74.21
2018-03-06T03:11:13.897Z,74.02
2018-03-06T03:11:54.451Z,74.02
2018-03-06T03:12:35.002Z,73.45
2018-03-06T03:13:15.558Z,73.35
2018-03-06T03:13:56.109Z,73.92
2018-03-06T03:14:36.736Z,73.54
2018-03-06T03:15:17.252Z,73.54
2018-03-06T03:15:57.819Z,73.35
2018-03-06T03:16:38.404Z,73.54
2018-03-06T03:17:18.961Z,73.54
2018-03-06T03:17:59.512Z,73.45
2018-03-06T03:18:40.141Z,73.45
2018-03-06T03:19:20.706Z,73.35
2018-03-06T03:20:01.288Z,73.54
2018-03-06T03:20:41.819Z,73.54
2018-03-06T03:21:22.354Z,73.54
2018-03-06T03:22:02.897Z,73.45
2018-03-06T03:22:43.450Z,73.35
2018-03-06T03:23:24.005Z,73.35
2018-03-06T03:24:04.570Z,73.35
2018-03-06T03:24:45.118Z,73.26
2018-03-06T03:25:25.663Z,73.64
2018-03-06T03:26:06.233Z,73.26
2018-03-06T03:26:46.748Z,73.45
2018-03-06T03:27:27.304Z,73.16
2018-03-06T03:28:07.866Z,73.54
2018-03-06T03:28:48.417Z,73.54
2018-03-06T03:29:28.977Z,73.35
2018-03-06T03:30:09.533Z,73.54
2018-03-06T03:30:50.068Z,73.45
2018-03-06T03:31:30.637Z,73.35
2018-03-06T03:32:11.191Z,73.35
2018-03-06T03:32:51.757Z,73.35
2018-03-06T03:33:32.310Z,73.54
2018-03-06T03:34:12.865Z,73.54
2018-03-06T03:34:53.452Z,73.26
2018-03-06T03:35:34.010Z,73.26
2018-03-06T03:36:14.580Z,73.32
2018-03-06T03:36:55.127Z,73.83
2018-03-06T03:37:35.672Z,74.02
2018-03-06T03:38:16.890Z,73.83
2018-03-06T03:38:57.452Z,74.02
2018-03-06T03:39:38.020Z,74.21
2018-03-06T03:40:18.579Z,74.21
2018-03-06T03:40:59.157Z,73.88
2018-03-06T03:41:39.696Z,74.02
2018-03-06T03:42:20.243Z,73.45
2018-03-06T03:43:00.883Z,73.35
2018-03-06T03:43:41.448Z,73.35
2018-03-06T03:44:22.002Z,73.35
2018-03-06T03:45:02.563Z,73.54
2018-03-06T03:45:43.111Z,73.45
2018-03-06T03:46:23.664Z,73.98
2018-03-06T03:47:04.222Z,73.92
2018-03-06T03:47:44.763Z,73.79
2018-03-06T03:48:25.317Z,73.88
2018-03-06T03:49:05.863Z,73.79
2018-03-06T03:49:46.425Z,74.17
2018-03-06T03:50:27.001Z,74.17
2018-03-06T03:51:07.572Z,74.07
2018-03-06T03:51:48.121Z,73.98
2018-03-06T03:52:28.680Z,73.88
2018-03-06T03:53:09.244Z,73.79
2018-03-06T03:53:49.819Z,73.79
2018-03-06T03:54:30.373Z,74.07
2018-03-06T03:55:10.929Z,74.36
2018-03-06T03:55:51.459Z,73.98
2018-03-06T03:56:32.002Z,74.36
2018-03-06T03:57:12.585Z,74.49
2018-03-06T03:57:53.129Z,74.3
2018-03-06T03:58:33.689Z,74.36
2018-03-06T03:59:14.257Z,74.17
2018-03-06T03:59:54.813Z,74.36
2018-03-06T04:00:35.380Z,74.26
2018-03-06T04:01:15.943Z,74.26
2018-03-06T04:01:56.537Z,74.36
2018-03-06T04:02:37.104Z,74.26
2018-03-06T04:03:17.647Z,74.26
2018-03-06T04:03:58.195Z,74.26
2018-03-06T04:04:38.869Z,74.3
2018-03-06T04:05:19.594Z,74.36
2018-03-06T04:06:00.168Z,74.36
2018-03-06T04:06:40.737Z,74.26
2018-03-06T04:07:21.303Z,74.3
2018-03-06T04:08:01.872Z,73.79
2018-03-06T04:08:42.430Z,73.88
2018-03-06T04:09:22.988Z,73.79
2018-03-06T04:10:03.548Z,73.79
2018-03-06T04:10:44.125Z,73.88
2018-03-06T04:11:24.684Z,74.45
2018-03-06T04:12:05.249Z,74.26
2018-03-06T04:12:45.815Z,74.26
2018-03-06T04:13:26.379Z,74.36
2018-03-06T04:14:06.979Z,74.17
2018-03-06T04:14:47.520Z,74.45
2018-03-06T04:15:28.070Z,74.11
2018-03-06T04:16:08.614Z,74.26
2018-03-06T04:16:49.169Z,74.26
2018-03-06T04:17:29.721Z,74.26
2018-03-06T04:18:10.266Z,74.07
2018-03-06T04:18:50.814Z,73.88
2018-03-06T04:19:31.371Z,74.26
2018-03-06T04:20:11.937Z,74.07
2018-03-06T04:20:52.471Z,74.26
2018-03-06T04:21:33.028Z,74.55
2018-03-06T04:22:13.585Z,73.98
2018-03-06T04:22:54.125Z,73.98
2018-03-06T04:23:34.645Z,73.79
2018-03-06T04:24:15.379Z,73.98
2018-03-06T04:24:55.979Z,73.98
2018-03-06T04:25:36.532Z,73.79
2018-03-06T04:26:17.107Z,73.98
2018-03-06T04:26:57.651Z,73.98
2018-03-06T04:27:38.219Z,73.88
2018-03-06T04:28:18.818Z,74.07
2018-03-06T04:28:59.359Z,73.79
2018-03-06T04:29:39.909Z,74.07
2018-03-06T04:30:20.464Z,74.17
2018-03-06T04:31:01.024Z,73.88
2018-03-06T04:31:41.572Z,74.07
2018-03-06T04:32:22.264Z,73.79
2018-03-06T04:33:02.826Z,74.07
2018-03-06T04:33:43.388Z,73.98
2018-03-06T04:34:23.968Z,73.88
2018-03-06T04:35:04.501Z,74.07
2018-03-06T04:35:45.063Z,73.79
2018-03-06T04:36:25.627Z,73.88
2018-03-06T04:37:06.176Z,73.88
2018-03-06T04:37:46.802Z,74.17
2018-03-06T04:38:27.361Z,73.98
2018-03-06T04:39:07.921Z,74.36
2018-03-06T04:39:48.499Z,74.36
2018-03-06T04:40:29.030Z,74.36
2018-03-06T04:41:09.581Z,74.26
2018-03-06T04:41:50.128Z,74.74
2018-03-06T04:42:30.690Z,74.74
2018-03-06T04:43:11.239Z,74.74
2018-03-06T04:43:51.816Z,74.55
2018-03-06T04:44:32.373Z,74.83
2018-03-06T04:45:12.937Z,74.64
2018-03-06T04:45:53.510Z,74.74
2018-03-06T04:46:34.138Z,75.4
2018-03-06T04:47:14.657Z,75.49
2018-03-06T04:47:55.219Z,75.49
2018-03-06T04:48:35.769Z,75.4
2018-03-06T04:49:16.327Z,75.21
2018-03-06T04:49:56.877Z,74.93
2018-03-06T04:50:37.429Z,74.64
2018-03-06T04:51:17.990Z,74.74
2018-03-06T04:51:58.558Z,74.74
2018-03-06T04:52:39.117Z,74.74
2018-03-06T04:53:19.723Z,74.74
2018-03-06T04:54:00.257Z,74.45
2018-03-06T04:54:40.817Z,75.21
2018-03-06T04:55:21.372Z,74.55
2018-03-06T04:56:01.933Z,74.55
2018-03-06T04:56:42.486Z,75.12
2018-03-06T04:57:23.020Z,75.12
2018-03-06T04:58:03.570Z,74.64
2018-03-06T04:58:44.145Z,74.74
2018-03-06T04:59:24.702Z,74.83
2018-03-06T05:00:05.261Z,74.83
2018-03-06T05:00:45.798Z,74.83
2018-03-06T05:01:26.361Z,74.64
2018-03-06T05:02:06.950Z,74.26
2018-03-06T05:02:47.511Z,74.26
2018-03-06T05:03:28.040Z,74.36
2018-03-06T05:04:08.608Z,74.17
2018-03-06T05:04:49.148Z,74.36
2018-03-06T05:05:29.701Z,74.45
2018-03-06T05:06:10.253Z,74.36
2018-03-06T05:06:50.829Z,74.45
2018-03-06T05:07:31.387Z,74.17
2018-03-06T05:08:11.950Z,74.07
2018-03-06T05:08:52.496Z,74.45
2018-03-06T05:09:33.045Z,74.45
2018-03-06T05:10:13.596Z,74.07
2018-03-06T05:10:54.141Z,74.26
2018-03-06T05:11:34.694Z,74.26
2018-03-06T05:12:15.239Z,74.36
2018-03-06T05:12:55.817Z,74.07
2018-03-06T05:13:36.390Z,74.07
2018-03-06T05:14:16.962Z,74.45
2018-03-06T05:14:57.516Z,74.17
2018-03-06T05:15:38.077Z,74.07
2018-03-06T05:16:18.642Z,74.17
2018-03-06T05:16:59.181Z,74.07
2018-03-06T05:17:39.725Z,74.17
2018-03-06T05:18:20.272Z,74.26
2018-03-06T05:19:00.849Z,74.26
2018-03-06T05:19:41.415Z,74.36
2018-03-06T05:20:21.951Z,74.17
2018-03-06T05:21:02.499Z,74.36
2018-03-06T05:21:43.059Z,74.36
2018-03-06T05:22:23.602Z,74.17
2018-03-06T05:23:04.163Z,74.26
2018-03-06T05:23:44.729Z,74.17
2018-03-06T05:24:25.294Z,74.26
2018-03-06T05:25:05.841Z,74.36
2018-03-06T05:25:46.407Z,74.36
2018-03-06T05:26:27.011Z,74.36
2018-03-06T05:27:07.552Z,74.26
2018-03-06T05:27:48.093Z,74.17
2018-03-06T05:28:28.667Z,74.36
2018-03-06T05:29:09.214Z,74.07
2018-03-06T05:29:49.770Z,74.36
2018-03-06T05:30:30.340Z,73.79
2018-03-06T05:31:10.909Z,73.98
2018-03-06T05:31:51.469Z,73.88
2018-03-06T05:32:32.043Z,73.98
2018-03-06T05:33:12.602Z,73.79
2018-03-06T05:33:53.121Z,73.98
2018-03-06T05:34:33.679Z,73.88
2018-03-06T05:35:14.224Z,74.45
2018-03-06T05:35:54.787Z,74.45
2018-03-06T05:36:35.342Z,74.07
2018-03-06T05:37:15.902Z,74.26
2018-03-06T05:37:56.464Z,74.26
2018-03-06T05:38:37.030Z,74.26
2018-03-06T05:39:17.555Z,74.26
2018-03-06T05:39:58.130Z,74.26
2018-03-06T05:40:38.695Z,74.45
2018-03-06T05:41:19.248Z,74.36
2018-03-06T05:41:59.812Z,74.36
2018-03-06T05:42:40.362Z,74.36
2018-03-06T05:43:20.946Z,74.07
2018-03-06T05:44:01.512Z,74.36
2018-03-06T05:44:42.084Z,74.55
2018-03-06T05:45:22.618Z,74.26
2018-03-06T05:46:03.197Z,74.64
2018-03-06T05:46:43.728Z,74.83
2018-03-06T05:47:24.275Z,74.64
2018-03-06T05:48:04.849Z,74.83
2018-03-06T05:48:45.388Z,74.74
2018-03-06T05:49:25.941Z,74.55
2018-03-06T05:50:06.490Z,74.64
2018-03-06T05:50:47.147Z,74.74
2018-03-06T05:54:17.818Z,74.83
2018-03-06T05:54:58.360Z,74.74
2018-03-06T05:55:38.973Z,74.74
2018-03-06T05:56:19.586Z,74.93
2018-03-06T05:57:00.148Z,74.64
2018-03-06T05:57:40.755Z,75.02
2018-03-06T05:58:21.318Z,74.93
2018-03-06T05:59:01.872Z,74.93
2018-03-06T05:59:42.473Z,74.83
2018-03-06T06:00:23.032Z,75.02
2018-03-06T06:01:03.566Z,75.12
2018-03-06T06:01:44.128Z,75.4
2018-03-06T06:02:24.703Z,75.31
2018-03-06T06:03:05.254Z,75.12
2018-03-06T06:03:45.819Z,75.21
2018-03-06T06:04:26.361Z,75.4
2018-03-06T06:05:06.931Z,75.31
2018-03-06T06:05:47.538Z,75.12
2018-03-06T06:06:28.119Z,75.21
2018-03-06T06:07:08.678Z,75.31
2018-03-06T06:07:49.227Z,75.31
2018-03-06T06:08:29.794Z,75.21
2018-03-06T06:09:10.393Z,75.12
2018-03-06T06:09:50.941Z,75.21
2018-03-06T06:10:31.488Z,75.4
2018-03-06T06:11:12.087Z,75.21
2018-03-06T06:11:52.639Z,75.21
2018-03-06T06:12:33.187Z,75.21
2018-03-06T06:13:13.767Z,75.31
2018-03-06T06:13:54.375Z,75.59
2018-03-06T06:14:34.931Z,75.87
2018-03-06T06:15:15.524Z,75.68
2018-03-06T06:15:56.096Z,75.49
2018-03-06T06:16:36.662Z,75.59
2018-03-06T06:17:17.234Z,76.34
2018-03-06T06:17:57.865Z,76.06
2018-03-06T06:18:38.408Z,76.15
2018-03-06T06:19:18.965Z,75.96
2018-03-06T06:19:59.510Z,76.06
2018-03-06T06:20:40.103Z,75.96
2018-03-06T06:21:20.729Z,76.06
2018-03-06T06:22:01.241Z,76.06
2018-03-06T06:22:41.794Z,75.96
2018-03-06T06:23:22.354Z,75.96
2018-03-06T06:24:02.899Z,76.15
2018-03-06T06:24:43.448Z,76.15
2018-03-06T06:25:23.999Z,76.15
2018-03-06T06:26:04.553Z,75.68
2018-03-06T06:26:45.122Z,76.15
2018-03-06T06:27:25.678Z,76.15
2018-03-06T06:28:06.243Z,76.06
2018-03-06T06:28:46.906Z,75.87
2018-03-06T06:29:27.606Z,75.87
2018-03-06T06:30:08.150Z,78.42
2018-03-06T06:30:48.714Z,82.15
2018-03-06T06:31:29.326Z,83.95
2018-03-06T06:32:09.895Z,85.75
2018-03-06T06:32:50.469Z,86.51
2018-03-06T06:33:31.015Z,86.55
2018-03-06T06:34:11.560Z,86.27
2018-03-06T06:34:52.114Z,85.27
2018-03-06T06:35:32.669Z,83.85
2018-03-06T06:36:13.378Z,82.43
2018-03-06T06:36:53.928Z,80.86
2018-03-06T06:37:34.485Z,79.34
2018-03-06T06:38:15.054Z,78.11
2018-03-06T06:38:55.628Z,76.78
2018-03-06T06:39:36.200Z,75.26
2018-03-06T06:40:16.803Z,73.69
2018-03-06T06:40:57.382Z,71.89
2018-03-06T06:41:37.932Z,69.04
2018-03-06T06:42:18.484Z,67.05
2018-03-06T06:42:59.037Z,65.88
2018-03-06T06:43:39.586Z,65.59
2018-03-06T06:44:20.139Z,65.22
2018-03-06T06:45:00.761Z,65.31
2018-03-06T06:45:41.318Z,65.59
2018-03-06T06:46:21.881Z,65.47
2018-03-06T06:47:02.463Z,65.94
2018-03-06T06:47:43.022Z,66.13
2018-03-06T06:48:23.573Z,66.32
2018-03-06T06:49:04.140Z,66.99
2018-03-06T06:49:44.727Z,67.27
2018-03-06T06:50:25.300Z,67.46
2018-03-06T06:51:05.834Z,68.08
2018-03-06T06:51:46.689Z,68.46
2018-03-06T06:52:27.284Z,68.56
2018-03-06T06:53:07.787Z,68.65
2018-03-06T06:53:48.342Z,69.41
2018-03-06T06:54:29.046Z,69.7
2018-03-06T06:55:09.607Z,69.89
2018-03-06T06:55:50.262Z,70.36
2018-03-06T06:56:30.810Z,70.45
2018-03-06T06:57:12.421Z,70.93
2018-03-06T06:57:52.972Z,70.93
2018-03-06T06:58:33.663Z,70.83
2018-03-06T06:59:14.239Z,71.21
2018-03-06T06:59:54.800Z,71.5
2018-03-06T07:00:35.378Z,71.69
2018-03-06T07:01:15.946Z,71.93
2018-03-06T07:01:57.598Z,71.74
2018-03-06T07:02:38.148Z,71.65
2018-03-06T07:03:18.841Z,71.93
2018-03-06T07:03:59.486Z,72.31
2018-03-06T07:04:40.049Z,72.12
2018-03-06T07:05:20.648Z,72.03
2018-03-06T07:06:01.209Z,72.12
2018-03-06T07:06:41.782Z,72.03
2018-03-06T07:07:22.445Z,72.03
2018-03-06T07:08:03.009Z,72.6
2018-03-06T07:08:43.559Z,72.78
2018-03-06T07:09:24.119Z,72.41
2018-03-06T07:10:04.672Z,72.5
2018-03-06T07:10:45.224Z,72.5
2018-03-06T07:11:25.799Z,72.41
2018-03-06T07:12:06.368Z,72.22
2018-03-06T07:12:46.921Z,72.6
2018-03-06T07:13:27.492Z,72.41
2018-03-06T07:14:08.127Z,72.41
2018-03-06T07:14:48.686Z,72.41
2018-03-06T07:15:29.230Z,72.69
2018-03-06T07:16:09.774Z,72.6
2018-03-06T07:16:50.334Z,72.69
2018-03-06T07:17:30.905Z,72.6
2018-03-06T07:18:11.489Z,72.69
2018-03-06T07:18:52.111Z,72.5
2018-03-06T07:19:32.742Z,73.07
2018-03-06T07:20:13.299Z,72.97
2018-03-06T07:20:53.865Z,72.78
2018-03-06T07:21:34.464Z,72.97
2018-03-06T07:22:15.004Z,72.97
2018-03-06T07:22:55.657Z,72.6
2018-03-06T07:23:36.244Z,72.78
2018-03-06T07:24:16.844Z,72.97
2018-03-06T07:24:57.426Z,73.16
2018-03-06T07:25:37.986Z,72.97
2018-03-06T07:26:18.545Z,72.88
2018-03-06T07:26:59.091Z,72.97
2018-03-06T07:27:39.657Z,72.88
2018-03-06T07:28:20.210Z,72.97
2018-03-06T07:29:00.765Z,73.07
2018-03-06T07:29:41.445Z,73.16
2018-03-06T07:30:21.932Z,73.64
2018-03-06T07:31:02.494Z,73.26
2018-03-06T07:31:43.052Z,73.45
2018-03-06T07:32:23.611Z,73.35
2018-03-06T07:33:04.180Z,73.64
2018-03-06T07:33:44.739Z,73.35
2018-03-06T07:34:25.292Z,73.45
2018-03-06T07:35:05.844Z,73.45
2018-03-06T07:35:46.474Z,73.35
2018-03-06T07:36:27.061Z,73.16
2018-03-06T07:37:07.605Z,73.45
2018-03-06T07:37:48.267Z,73.45
2018-03-06T07:38:28.821Z,73.68
2018-03-06T07:39:09.374Z,73.3
2018-03-06T07:39:49.978Z,72.63
2018-03-06T07:40:30.560Z,72.44
2018-03-06T07:41:11.126Z,72.34
2018-03-06T07:41:51.694Z,72.25
2018-03-06T07:42:32.249Z,71.97
2018-03-06T07:43:12.864Z,71.78
2018-03-06T07:43:53.410Z,71.97
2018-03-06T07:44:33.985Z,72.06
2018-03-06T07:45:14.569Z,71.97
2018-03-06T07:45:55.137Z,72.16
2018-03-06T07:46:35.714Z,72.16
2018-03-06T07:47:16.339Z,72.06
2018-03-06T07:47:56.961Z,71.97
2018-03-06T07:48:37.582Z,71.78
2018-03-06T07:49:18.149Z,71.78
2018-03-06T07:49:58.714Z,71.69
2018-03-06T07:50:39.290Z,71.4
2018-03-06T07:51:19.825Z,71.59
2018-03-06T07:52:00.373Z,71.5
2018-03-06T07:52:40.942Z,71.4
2018-03-06T07:53:21.504Z,71.78
2018-03-06T07:54:02.088Z,71.88
2018-03-06T07:54:42.642Z,71.5
2018-03-06T07:55:23.280Z,71.4
2018-03-06T07:56:03.842Z,70.93
2018-03-06T07:56:44.398Z,71.12
2018-03-06T07:57:24.985Z,70.97
2018-03-06T07:58:05.560Z,70.68
2018-03-06T07:58:46.122Z,70.78
2018-03-06T07:59:26.668Z,70.39
2018-03-06T08:00:07.258Z,70.68
2018-03-06T08:00:47.837Z,70.2
2018-03-06T08:01:28.403Z,70.01
2018-03-06T08:02:08.952Z,69.73
2018-03-06T08:02:49.504Z,69.45
2018-03-06T08:03:30.054Z,69.17
2018-03-06T08:04:10.603Z,68.4
2018-03-06T08:04:51.164Z,68.5
2018-03-06T08:05:31.775Z,68.02
2018-03-06T08:06:12.347Z,67.83
2018-03-06T08:06:52.909Z,68.06
2018-03-06T08:07:33.515Z,67.68
2018-03-06T08:08:14.159Z,67.58
2018-03-06T08:08:54.715Z,67.55
2018-03-06T08:09:35.297Z,67.93
2018-03-06T08:10:15.828Z,67.83
2018-03-06T08:10:56.408Z,67.77
2018-03-06T08:11:36.983Z,67.87
2018-03-06T08:12:17.674Z,68.06
2018-03-06T08:12:58.216Z,67.58
2018-03-06T08:13:38.770Z,67.58
2018-03-06T08:14:19.326Z,67.87
2018-03-06T08:14:59.896Z,67.11
2018-03-06T08:15:40.453Z,66.93
2018-03-06T08:16:21.014Z,66.93
2018-03-06T08:17:01.628Z,66.83
2018-03-06T08:17:42.169Z,66.74
2018-03-06T08:18:22.721Z,66.64
2018-03-06T08:19:03.284Z,66.35
2018-03-06T08:19:43.838Z,66.54
2018-03-06T08:20:24.445Z,65.97
2018-03-06T08:21:05.036Z,65.97
2018-03-06T08:21:45.803Z,65.88
2018-03-06T08:22:26.364Z,66.07
2018-03-06T08:23:06.927Z,66.01
2018-03-06T08:23:47.483Z,65.91
2018-03-06T08:24:28.042Z,65.53
2018-03-06T08:25:08.607Z,65.72
2018-03-06T08:25:49.184Z,65.44
2018-03-06T08:26:29.759Z,65.53
2018-03-06T08:27:10.314Z,65.53
2018-03-06T08:27:50.873Z,65.72
2018-03-06T08:28:31.433Z,65.72
2018-03-06T08:29:11.993Z,65.63
2018-03-06T08:29:52.575Z,65.25
2018-03-06T08:30:33.128Z,65.34
2018-03-06T08:31:13.696Z,65.34
2018-03-06T08:31:54.271Z,65.16
2018-03-06T08:32:34.835Z,64.78
2018-03-06T08:33:15.402Z,64.49
2018-03-06T08:33:55.957Z,64.78
2018-03-06T08:34:36.509Z,64.3
2018-03-06T08:35:17.087Z,63.82
2018-03-06T08:35:57.654Z,64.11
2018-03-06T08:36:38.210Z,64.01
2018-03-06T08:37:18.800Z,64.11
2018-03-06T08:37:59.345Z,64.2
2018-03-06T08:38:39.930Z,64.4
2018-03-06T08:39:20.506Z,64.4
2018-03-06T08:40:01.061Z,64.78
2018-03-06T08:40:41.627Z,64.49
2018-03-06T08:41:22.208Z,64.59
2018-03-06T08:42:02.768Z,64.49
2018-03-06T08:42:43.334Z,64.87
2018-03-06T08:43:23.899Z,65.16
2018-03-06T08:44:04.504Z,65.34
2018-03-06T08:44:45.607Z,65.34
2018-03-06T08:45:26.163Z,65.34
2018-03-06T08:46:06.725Z,65.34
2018-03-06T08:46:47.292Z,65.34
2018-03-06T08:47:27.846Z,65.34